Time;durP1;ratioP1;P1;durP2;ratioP2;P2;SDS_P1;SDS_P2;PMS_P1;PMS_P2;Temp;Humidity;BMP_temperature;BMP_pressure;BME280_temperature;BME280_humidity;BME280_pressure;Samples;Min_cycle;Max_cycle;Signal;HPM_P1;HPM_P2
2022/04/29 00:02:11;;;;;;;17.33;12.00;;;;;;;6.12;85.17;102762.56;10435302;28;20055;-74
2022/04/29 00:07:12;;;;;;;25.38;12.90;;;;;;;6.06;85.39;102769.75;10454339;28;20049;-74
2022/04/29 00:12:13;;;;;;;22.73;13.32;;;;;;;6.08;85.63;102759.53;10499663;28;20809;-74
2022/04/29 00:17:13;;;;;;;21.58;11.63;;;;;;;5.96;85.55;102749.75;10500599;28;20033;-74
2022/04/29 00:22:14;;;;;;;17.50;11.43;;;;;;;5.95;85.34;102744.38;10481870;28;20506;-74
2022/04/29 00:27:14;;;;;;;20.00;13.02;;;;;;;5.87;85.92;102746.25;10500856;28;20102;-74
2022/04/29 00:32:15;;;;;;;18.90;11.57;;;;;;;5.82;86.24;102744.91;10498366;28;20024;-74
2022/04/29 00:37:16;;;;;;;18.98;13.02;;;;;;;5.80;86.42;102734.34;10500998;28;20111;-74
2022/04/29 00:42:18;;;;;;;30.27;12.50;;;;;;;5.75;86.51;102729.47;10439311;28;20472;-74
2022/04/29 00:47:20;;;;;;;20.33;12.80;;;;;;;5.67;87.06;102721.84;10458029;28;20132;-74
2022/04/29 00:52:21;;;;;;;20.63;13.27;;;;;;;5.61;87.40;102715.13;10480190;28;20029;-75
2022/04/29 00:57:26;;;;;;;24.45;14.93;;;;;;;5.58;87.67;102719.25;10472512;28;20048;-74
2022/04/29 01:02:27;;;;;;;19.45;13.23;;;;;;;5.73;87.88;102714.66;10452559;28;20083;-74
2022/04/29 01:07:28;;;;;;;23.08;11.40;;;;;;;5.99;86.82;102718.84;10457555;28;20130;-74
2022/04/29 01:12:32;;;;;;;20.15;11.63;;;;;;;6.04;86.16;102718.41;10459905;28;20060;-75
2022/04/29 01:17:36;;;;;;;20.80;12.35;;;;;;;6.26;85.30;102710.97;10496281;28;20514;-75
2022/04/29 01:22:37;;;;;;;22.50;12.10;;;;;;;6.26;85.42;102709.28;10463584;28;20048;-75
2022/04/29 01:27:38;;;;;;;21.85;12.10;;;;;;;6.30;85.79;102701.00;10496984;28;20032;-74
2022/04/29 01:32:39;;;;;;;18.10;11.73;;;;;;;6.19;85.45;102699.06;10495726;28;20115;-74
2022/04/29 01:37:40;;;;;;;16.92;11.40;;;;;;;6.33;85.68;102695.16;10498410;28;20060;-74
2022/04/29 01:42:41;;;;;;;22.48;11.70;;;;;;;6.35;85.29;102687.53;10496340;28;20139;-74
2022/04/29 01:47:41;;;;;;;19.05;12.18;;;;;;;6.25;85.58;102680.53;10481105;28;20571;-73
2022/04/29 01:52:42;;;;;;;27.20;11.60;;;;;;;6.31;85.97;102691.50;10494781;28;20056;-74
2022/04/29 01:57:43;;;;;;;16.92;10.85;;;;;;;6.42;84.44;102688.22;10479352;28;20563;-74
2022/04/29 02:02:45;;;;;;;22.10;10.27;;;;;;;6.43;84.13;102687.44;10454908;28;20469;-74
2022/04/29 02:07:45;;;;;;;16.65;10.23;;;;;;;6.24;84.46;102682.22;10470645;28;20049;-74
2022/04/29 02:12:46;;;;;;;16.58;11.07;;;;;;;6.11;84.70;102668.84;10477660;28;20070;-74
2022/04/29 02:17:47;;;;;;;18.35;11.38;;;;;;;5.85;85.28;102669.84;10496011;28;20056;-74
2022/04/29 02:22:47;;;;;;;20.58;10.75;;;;;;;5.76;86.43;102679.34;10494677;28;20499;-74
2022/04/29 02:27:48;;;;;;;24.80;12.02;;;;;;;5.70;86.65;102675.38;10477421;28;20028;-74
2022/04/29 02:32:49;;;;;;;35.42;13.57;;;;;;;5.53;86.57;102676.34;10495417;28;20064;-74
2022/04/29 02:37:49;;;;;;;17.50;12.40;;;;;;;5.57;87.67;102675.88;10496872;28;20052;-74
2022/04/29 02:42:50;;;;;;;19.25;12.15;;;;;;;5.53;87.58;102668.53;10493622;28;20070;-74
2022/04/29 02:47:55;;;;;;;23.77;13.05;;;;;;;5.40;87.95;102669.06;10495138;28;20182;-74
2022/04/29 02:52:56;;;;;;;18.23;11.48;;;;;;;5.30;87.35;102655.94;10492602;28;20064;-74
2022/04/29 02:57:57;;;;;;;20.70;12.27;;;;;;;5.19;88.18;102674.72;10492733;28;20056;-74
2022/04/29 03:02:57;;;;;;;20.05;12.98;;;;;;;5.11;87.55;102669.69;10494953;28;20488;-74
2022/04/29 03:07:58;;;;;;;19.17;13.32;;;;;;;5.10;88.34;102667.88;10491636;28;20094;-74
2022/04/29 03:12:58;;;;;;;20.08;13.95;;;;;;;5.10;87.96;102670.47;10491525;28;20028;-74
2022/04/29 03:23:18;;;;;;;26.17;14.20;;;;;;;4.75;88.69;102659.16;10494872;28;20028;-74
2022/04/29 03:28:19;;;;;;;23.70;13.85;;;;;;;4.55;89.12;102659.00;10476856;28;20028;-73
2022/04/29 03:33:20;;;;;;;23.30;12.77;;;;;;;4.77;89.58;102663.75;10491710;28;20131;-74
2022/04/29 03:38:20;;;;;;;21.52;13.18;;;;;;;4.83;89.50;102650.47;10478028;28;20124;-74
2022/04/29 03:43:21;;;;;;;28.80;15.13;;;;;;;5.05;89.02;102657.78;10491513;28;20553;-74
2022/04/29 03:48:21;;;;;;;22.48;14.10;;;;;;;5.21;88.32;102662.81;10494823;28;20511;-74
2022/04/29 03:53:22;;;;;;;20.60;12.70;;;;;;;5.34;88.34;102664.91;10491737;28;20082;-74
2022/04/29 03:58:23;;;;;;;20.25;12.77;;;;;;;5.43;88.24;102651.16;10476457;28;20020;-74
2022/04/29 04:03:23;;;;;;;23.20;11.55;;;;;;;5.50;87.57;102654.38;10491238;28;20063;-74
2022/04/29 04:08:24;;;;;;;24.75;12.23;;;;;;;5.33;88.21;102651.03;10457073;28;20126;-74
2022/04/29 04:13:24;;;;;;;19.65;14.50;;;;;;;5.20;88.43;102648.00;10442185;28;20037;-74
2022/04/29 04:18:25;;;;;;;19.23;13.80;;;;;;;5.16;88.74;102648.47;10441881;28;20025;-74
2022/04/29 04:23:25;;;;;;;22.88;14.25;;;;;;;5.19;88.86;102641.00;10448264;28;20460;-74
2022/04/29 04:28:27;;;;;;;26.30;13.50;;;;;;;5.22;89.01;102638.69;10407950;28;20065;-75
2022/04/29 04:33:27;;;;;;;22.08;11.95;;;;;;;5.24;88.48;102638.06;10450949;28;20044;-74
2022/04/29 04:38:27;;;;;;;20.40;11.95;;;;;;;5.31;88.63;102642.19;10451117;28;20128;-74
2022/04/29 04:43:28;;;;;;;21.63;12.52;;;;;;;5.59;87.08;102650.06;10439408;28;20060;-74
2022/04/29 04:48:29;;;;;;;18.77;11.07;;;;;;;5.69;86.38;102646.66;10440253;28;20067;-74
2022/04/29 04:53:30;;;;;;;20.10;11.15;;;;;;;5.73;86.44;102638.38;10425437;28;20029;-74
2022/04/29 04:58:32;;;;;;;26.73;13.05;;;;;;;5.73;86.48;102644.50;10399537;28;20025;-75
2022/04/29 05:03:33;;;;;;;21.58;10.70;;;;;;;5.96;84.62;102643.19;10437673;28;20036;-74
2022/04/29 05:08:33;;;;;;;20.50;11.88;;;;;;;5.95;85.17;102635.22;10490600;28;20091;-74
2022/04/29 05:13:34;;;;;;;24.15;12.50;;;;;;;5.85;85.55;102631.75;10498448;28;20703;-74
2022/04/29 05:18:34;;;;;;;17.60;10.95;;;;;;;5.92;85.68;102635.88;10497742;28;20119;-74
2022/04/29 05:23:36;;;;;;;20.92;11.18;;;;;;;6.03;85.22;102639.50;10495403;28;20037;-74
2022/04/29 05:28:37;;;;;;;32.20;12.75;;;;;;;6.12;85.06;102650.75;10495210;28;20474;-73
2022/04/29 05:33:38;;;;;;;24.92;13.80;;;;;;;6.30;84.54;102655.88;10498736;28;20115;-74
2022/04/29 05:43:58;;;;;;;20.75;13.43;;;;;;;6.60;83.84;102651.69;10474666;28;20032;-72
2022/04/29 05:48:58;;;;;;;22.98;12.48;;;;;;;6.74;81.75;102651.28;10495865;28;20127;-73
2022/04/29 05:54:00;;;;;;;19.25;10.95;;;;;;;7.00;81.48;102667.47;10496113;28;20056;-74
2022/04/29 05:59:00;;;;;;;31.48;11.65;;;;;;;7.25;79.68;102654.94;10493089;28;20036;-75
2022/04/29 06:04:01;;;;;;;22.55;12.63;;;;;;;7.30;79.74;102652.78;10477815;28;20535;-74
2022/04/29 06:09:02;;;;;;;20.42;10.90;;;;;;;7.43;78.73;102652.16;10453071;28;20044;-75
2022/04/29 06:14:02;;;;;;;20.08;10.18;;;;;;;7.51;77.11;102653.75;10455865;28;20021;-74
2022/04/29 06:19:03;;;;;;;18.48;10.25;;;;;;;7.54;75.96;102656.63;10451535;28;20178;-75
2022/04/29 06:24:03;;;;;;;20.15;9.50;;;;;;;7.47;77.11;102668.22;10454597;28;20448;-76
2022/04/29 06:29:04;;;;;;;19.33;9.52;;;;;;;7.60;77.66;102665.00;10446941;28;20076;-75
2022/04/29 06:34:04;;;;;;;25.83;12.73;;;;;;;7.80;76.95;102668.44;10426732;28;20108;-75
2022/04/29 06:39:05;;;;;;;24.60;12.60;;;;;;;7.82;76.65;102663.38;10415635;28;20123;-74
2022/04/29 06:44:05;;;;;;;17.30;10.40;;;;;;;7.87;75.22;102673.41;10454279;28;20029;-75
2022/04/29 06:49:06;;;;;;;19.85;9.82;;;;;;;7.98;75.52;102673.44;10450105;28;20064;-74
2022/04/29 06:54:06;;;;;;;25.42;11.57;;;;;;;8.13;75.35;102672.16;10433853;28;20400;-74
2022/04/29 06:59:07;;;;;;;24.42;11.75;;;;;;;8.21;75.62;102678.06;10415147;28;20116;-74
2022/04/29 07:04:08;;;;;;;21.02;11.15;;;;;;;8.44;73.58;102674.81;10447301;28;20064;-74
2022/04/29 07:09:08;;;;;;;18.73;10.35;;;;;;;8.64;73.25;102684.38;10423753;28;20041;-74
2022/04/29 07:14:09;;;;;;;23.88;13.20;;;;;;;8.70;72.59;102681.34;10421105;28;20029;-74
2022/04/29 07:19:09;;;;;;;19.90;11.57;;;;;;;8.88;72.50;102676.78;10417755;28;20476;-74
2022/04/29 07:24:10;;;;;;;27.70;11.35;;;;;;;9.04;70.91;102676.34;10430353;28;20151;-74
2022/04/29 07:29:10;;;;;;;17.38;11.90;;;;;;;9.15;71.81;102669.41;10415867;28;20167;-73
2022/04/29 07:34:11;;;;;;;32.05;23.25;;;;;;;9.29;70.02;102678.38;10409641;28;20531;-73
2022/04/29 07:44:30;;;;;;;24.95;10.95;;;;;;;9.81;68.77;102663.38;10411215;28;20485;-73
2022/04/29 07:49:31;;;;;;;16.23;10.07;;;;;;;10.24;66.09;102665.84;10409342;28;20069;-73
2022/04/29 07:54:31;;;;;;;16.15;10.00;;;;;;;10.62;66.24;102663.47;10426828;28;20477;-73
2022/04/29 07:59:32;;;;;;;25.95;11.25;;;;;;;11.53;63.83;102664.97;10427030;28;20076;-73
2022/04/29 08:04:32;;;;;;;22.05;9.15;;;;;;;12.71;57.75;102664.38;10416594;28;20128;-73
2022/04/29 08:09:33;;;;;;;19.23;9.73;;;;;;;13.69;56.06;102666.41;10424784;28;20049;-73
2022/04/29 08:14:34;;;;;;;24.85;9.93;;;;;;;14.01;56.26;102666.63;10406669;28;20033;-73
2022/04/29 08:19:34;;;;;;;22.80;9.82;;;;;;;14.62;53.04;102673.81;10435611;28;20029;-76
2022/04/29 08:24:35;;;;;;;17.55;9.05;;;;;;;15.38;50.60;102673.88;10418920;28;20091;-73
2022/04/29 08:29:35;;;;;;;27.48;9.88;;;;;;;16.28;51.41;102677.88;10445095;28;20452;-73
2022/04/29 08:34:36;;;;;;;21.48;10.13;;;;;;;15.75;50.67;102677.66;10406933;28;20040;-73
2022/04/29 08:39:36;;;;;;;18.00;10.60;;;;;;;14.74;52.73;102678.94;10434755;28;20026;-73
2022/04/29 08:44:38;;;;;;;48.72;11.15;;;;;;;13.89;55.26;102683.47;10416568;28;20033;-73
2022/04/29 08:49:38;;;;;;;19.80;10.52;;;;;;;14.31;54.76;102680.75;10440975;28;20048;-73
2022/04/29 08:59:59;;;;;;;19.33;10.55;;;;;;;14.27;54.46;102684.03;10427223;28;20033;-73
2022/04/29 09:05:00;;;;;;;;;;;;;;;14.02;55.54;102684.25;10384545;28;20183;-73
2022/04/29 09:10:04;;;;;;;15.93;11.05;;;;;;;13.97;56.11;102680.41;10417717;28;20361;-73
2022/04/29 09:15:11;;;;;;;23.67;12.40;;;;;;;14.29;55.60;102670.97;10415542;28;20554;-73
2022/04/29 09:20:20;;;;;;;25.73;10.73;;;;;;;13.85;56.04;102683.16;10400061;28;20128;-73
2022/04/29 09:25:21;;;;;;;14.38;9.40;;;;;;;13.79;56.96;102681.97;10418547;28;20029;-73
2022/04/29 09:30:58;;;;;;;18.87;10.30;;;;;;;14.06;55.20;102678.34;10394953;28;20032;-72
2022/04/29 09:35:58;;;;;;;20.45;10.80;;;;;;;14.04;55.62;102685.25;10383565;28;20935;-73
2022/04/29 09:40:59;;;;;;;17.20;9.77;;;;;;;14.15;54.62;102678.00;10416673;28;20037;-73
2022/04/29 09:46:12;;;;;;;19.45;11.15;;;;;;;14.49;53.68;102675.72;10423656;28;20063;-73
2022/04/29 09:51:12;;;;;;;18.48;10.73;;;;;;;15.14;53.42;102672.47;10426210;28;20030;-73
2022/04/29 09:56:13;;;;;;;27.85;12.07;;;;;;;15.65;52.15;102672.69;10434405;28;20460;-73
2022/04/29 10:01:15;;;;;;;16.90;11.23;;;;;;;15.04;53.36;102663.09;10424173;28;20048;-73
2022/04/29 10:06:16;;;;;;;25.50;12.13;;;;;;;15.03;53.95;102662.22;10390819;28;20396;-73
2022/04/29 10:11:27;;;;;;;17.67;11.05;;;;;;;15.47;53.13;102667.31;10421223;28;20033;-73
2022/04/29 10:16:32;;;;;;;20.23;11.00;;;;;;;15.79;53.05;102654.97;10416519;28;20034;-74
2022/04/29 10:21:37;;;;;;;22.17;11.27;;;;;;;16.40;51.94;102656.47;10439008;28;20036;-73
2022/04/29 10:26:37;;;;;;;24.33;11.18;;;;;;;16.91;49.23;102653.75;10397853;28;20067;-73
2022/04/29 10:31:38;;;;;;;20.00;11.77;;;;;;;17.25;49.73;102658.09;10410954;28;20037;-73
2022/04/29 10:36:39;;;;;;;20.88;10.88;;;;;;;16.99;49.31;102643.63;10432732;28;20127;-73
2022/04/29 10:41:40;;;;;;;19.33;10.23;;;;;;;16.10;51.75;102648.75;10389010;28;20033;-73
2022/04/29 10:46:41;;;;;;;18.33;10.20;;;;;;;15.72;52.76;102643.16;10387914;28;20127;-73
2022/04/29 10:51:46;;;;;;;19.55;10.45;;;;;;;15.32;52.47;102641.88;10417175;28;20476;-73
2022/04/29 10:56:47;;;;;;;20.70;11.77;;;;;;;15.09;53.78;102636.19;10408517;28;20116;-73
2022/04/29 11:01:49;;;;;;;20.98;10.30;;;;;;;15.01;53.35;102632.22;10401244;28;20484;-73
2022/04/29 11:06:51;;;;;;;19.25;10.10;;;;;;;14.87;54.01;102644.56;10419657;28;20404;-73
2022/04/29 11:11:53;;;;;;;19.48;11.35;;;;;;;14.48;54.86;102638.72;10453775;28;20037;-73
2022/04/29 11:16:55;;;;;;;26.65;10.00;;;;;;;14.46;55.79;102629.81;10453416;28;20027;-73
2022/04/29 11:27:29;;;;;;;17.70;10.43;;;;;;;14.16;57.10;102614.00;10452836;28;20465;-73
2022/04/29 11:32:30;;;;;;;20.10;12.20;;;;;;;13.95;56.74;102623.31;10419130;28;20032;-73
2022/04/29 11:37:33;;;;;;;16.73;10.70;;;;;;;13.71;57.04;102612.16;10458308;28;20059;-74
2022/04/29 11:42:34;;;;;;;16.85;10.15;;;;;;;13.64;58.23;102602.97;10431802;28;20623;-73
2022/04/29 11:47:36;;;;;;;23.83;11.07;;;;;;;13.57;57.30;102591.97;10391037;28;20039;-73
2022/04/29 11:52:39;;;;;;;17.98;11.90;;;;;;;13.64;58.06;102591.53;10408451;28;20033;-73
2022/04/29 11:57:44;;;;;;;21.65;12.20;;;;;;;13.83;57.60;102576.88;10387945;28;20037;-73
2022/04/29 12:02:47;;;;;;;27.95;10.75;;;;;;;13.69;56.88;102576.06;10442133;28;20044;-73
2022/04/29 12:07:48;;;;;;;13.82;9.02;;;;;;;13.83;56.44;102574.25;10464145;28;20083;-73
2022/04/29 12:12:49;;;;;;;15.18;10.65;;;;;;;13.97;56.54;102589.16;10500860;28;20043;-73
2022/04/29 12:17:50;;;;;;;16.80;9.03;;;;;;;14.31;54.99;102591.22;10501231;28;20078;-74
2022/04/29 12:22:52;;;;;;;17.90;11.18;;;;;;;14.26;54.68;102581.25;10487826;28;20481;-73
2022/04/29 12:28:06;;;;;;;19.50;11.20;;;;;;;14.16;55.38;102583.31;10475274;28;20036;-73
2022/04/29 12:38:26;;;;;;;17.20;9.73;;;;;;;13.99;56.43;102587.53;10484134;28;20020;-73
2022/04/29 12:43:26;;;;;;;21.42;10.75;;;;;;;13.87;56.06;102586.78;10484488;28;20089;-73
2022/04/29 12:48:27;;;;;;;16.70;9.30;;;;;;;13.92;55.75;102599.44;10449985;28;20587;-73
2022/04/29 12:53:28;;;;;;;17.88;9.23;;;;;;;14.03;57.11;102605.34;10483066;28;20392;-73
2022/04/29 12:58:29;;;;;;;14.10;8.13;;;;;;;14.16;54.75;102596.47;10494759;28;20027;-73
2022/04/29 13:03:34;;;;;;;18.38;9.85;;;;;;;14.45;55.13;102599.03;10484499;28;20064;-74
2022/04/29 13:08:38;;;;;;;19.00;9.85;;;;;;;14.79;52.81;102591.44;10442612;28;20053;-73
2022/04/29 13:13:38;;;;;;;28.25;9.15;;;;;;;14.53;54.04;102584.59;10420751;28;20425;-73
2022/04/29 13:18:39;;;;;;;17.00;8.02;;;;;;;14.50;52.92;102569.53;10420162;28;20068;-74
2022/04/29 13:23:40;;;;;;;17.85;9.00;;;;;;;14.54;54.08;102578.50;10439029;28;20533;-74
2022/04/29 13:28:42;;;;;;;13.57;8.70;;;;;;;14.94;52.60;102582.59;10421610;28;20040;-73
2022/04/29 13:33:43;;;;;;;14.00;9.45;;;;;;;15.02;51.74;102576.03;10417368;28;20492;-74
2022/04/29 13:38:43;;;;;;;14.20;8.10;;;;;;;15.32;51.60;102572.38;10437531;28;20064;-73
2022/04/29 13:43:44;;;;;;;16.13;8.80;;;;;;;15.55;52.20;102565.72;10425544;28;20037;-73
2022/04/29 13:48:44;;;;;;;18.30;9.00;;;;;;;15.32;50.99;102562.72;10431645;28;20487;-73
2022/04/29 13:53:45;;;;;;;15.90;8.43;;;;;;;15.45;51.05;102548.47;10438922;28;20065;-74
2022/04/29 13:58:45;;;;;;;18.00;8.95;;;;;;;15.40;50.79;102549.94;10436541;28;20119;-73
2022/04/29 14:03:47;;;;;;;16.05;8.98;;;;;;;15.38;51.57;102546.31;10443545;28;20077;-73
2022/04/29 14:08:48;;;;;;;21.23;11.82;;;;;;;15.38;51.43;102534.06;10477854;28;20464;-74
2022/04/29 14:13:49;;;;;;;15.98;8.30;;;;;;;14.98;51.36;102535.38;10481211;28;20044;-74
2022/04/29 14:18:49;;;;;;;15.40;8.32;;;;;;;14.64;53.23;102532.53;10474775;28;20048;-73
2022/04/29 14:23:50;;;;;;;14.60;8.68;;;;;;;14.78;53.38;102530.69;10482258;28;20488;-73
2022/04/29 14:28:50;;;;;;;12.95;7.35;;;;;;;15.06;52.64;102520.00;10489677;28;20125;-73
2022/04/29 14:33:51;;;;;;;22.00;9.75;;;;;;;15.39;52.67;102513.84;10481587;28;20495;-73
2022/04/29 14:38:53;;;;;;;23.55;9.68;;;;;;;15.88;50.03;102512.03;10473614;28;20119;-73
2022/04/29 14:43:53;;;;;;;18.67;9.05;;;;;;;16.15;48.89;102507.28;10486483;28;20438;-73
2022/04/29 14:48:54;;;;;;;11.48;7.88;;;;;;;15.69;48.53;102509.31;10451515;28;20119;-73
2022/04/29 14:53:54;;;;;;;13.85;9.35;;;;;;;15.39;51.11;102504.22;10450310;28;20498;-73
2022/04/29 14:58:55;;;;;;;15.48;9.15;;;;;;;15.80;50.74;102493.13;10447201;28;20045;-73
2022/04/29 15:03:55;;;;;;;15.30;10.05;;;;;;;15.85;49.03;102496.91;10470490;28;20033;-72
2022/04/29 15:19:34;;;;;;;23.13;7.95;;;;;;;15.68;49.48;102509.22;10468433;28;20524;-73
2022/04/29 15:24:34;;;;;;;13.00;8.32;;;;;;;15.21;49.61;102512.00;10484915;28;20013;-73
2022/04/29 15:29:35;;;;;;;11.95;7.93;;;;;;;14.89;50.78;102508.50;10459516;28;20132;-73
2022/04/29 15:34:35;;;;;;;15.02;7.85;;;;;;;14.83;51.49;102505.50;10482291;28;20528;-73
2022/04/29 15:39:36;;;;;;;17.27;9.23;;;;;;;14.64;52.46;102508.81;10478589;28;20059;-73
2022/04/29 15:44:37;;;;;;;15.77;9.05;;;;;;;14.50;53.37;102510.63;10474824;28;20161;-73
2022/04/29 15:49:39;;;;;;;14.18;9.60;;;;;;;14.18;52.47;102504.41;10448925;28;20036;-74
2022/04/29 15:54:39;;;;;;;13.83;10.00;;;;;;;13.95;52.24;102507.50;10489469;28;20035;-72
2022/04/29 15:59:40;;;;;;;22.33;12.30;;;;;;;13.97;53.06;102507.56;10485292;28;20056;-73
2022/04/29 16:04:40;;;;;;;15.30;8.18;;;;;;;14.02;53.61;102503.50;10471083;28;20136;-73
2022/04/29 16:09:41;;;;;;;18.25;8.82;;;;;;;14.09;51.27;102499.50;10435357;28;20067;-73
2022/04/29 16:14:41;;;;;;;18.17;10.30;;;;;;;14.03;53.91;102502.69;10437440;28;20486;-73
2022/04/29 16:25:46;;;;;;;12.27;9.23;;;;;;;14.10;53.38;102493.44;10406061;28;20037;-73
2022/04/29 16:30:22;;;;;;;17.13;9.90;;;;;;;14.02;54.15;102489.44;10440929;28;20496;-73
2022/04/29 16:35:22;;;;;;;14.52;9.40;;;;;;;13.89;53.57;102483.44;10426184;28;20098;-73
2022/04/29 16:40:24;;;;;;;19.13;11.30;;;;;;;13.69;55.17;102489.22;10459570;28;20036;-73
2022/04/29 16:45:25;;;;;;;16.05;8.00;;;;;;;13.59;54.97;102496.56;10425505;28;20036;-73
2022/04/29 16:50:26;;;;;;;21.17;8.98;;;;;;;13.65;54.08;102496.94;10425932;28;20505;-73
2022/04/29 16:55:26;;;;;;;11.50;8.75;;;;;;;13.38;54.32;102482.94;10442806;28;20064;-73
2022/04/29 17:00:27;;;;;;;14.50;8.15;;;;;;;13.27;53.92;102489.25;10457364;28;20044;-73
2022/04/29 17:05:30;;;;;;;15.50;8.45;;;;;;;13.13;53.56;102484.03;10399320;28;20821;-73
2022/04/29 17:10:31;;;;;;;17.95;9.70;;;;;;;13.08;56.06;102480.22;10401938;28;20049;-73
2022/04/29 17:15:32;;;;;;;13.88;8.80;;;;;;;13.17;54.86;102480.78;10415302;28;20037;-73
2022/04/29 17:20:33;;;;;;;14.90;8.57;;;;;;;13.18;53.02;102482.59;10398647;28;20044;-73
2022/04/29 17:25:34;;;;;;;11.70;9.00;;;;;;;13.23;54.01;102482.91;10399307;28;20033;-73
2022/04/29 17:30:34;;;;;;;13.63;10.07;;;;;;;13.12;53.47;102482.22;10418975;28;20388;-73
2022/04/29 17:35:35;;;;;;;14.38;8.32;;;;;;;12.96;53.59;102482.06;10415510;28;20130;-74
2022/04/29 17:45:54;;;;;;;13.10;8.55;;;;;;;12.62;54.89;102483.44;10457003;28;20499;-73
2022/04/29 17:50:57;;;;;;;10.48;8.00;;;;;;;12.42;55.12;102484.75;10429751;28;20103;-73
2022/04/29 17:55:58;;;;;;;17.00;8.18;;;;;;;12.23;55.47;102483.50;10443381;28;20025;-73
2022/04/29 18:01:02;;;;;;;13.15;8.10;;;;;;;12.21;55.80;102494.75;10407536;28;20080;-74
2022/04/29 18:06:02;;;;;;;16.73;12.73;;;;;;;12.03;57.84;102490.06;10396905;28;20068;-73
2022/04/29 18:11:03;;;;;;;17.30;8.57;;;;;;;11.90;57.24;102504.94;10381884;28;20044;-73
2022/04/29 18:16:04;;;;;;;15.38;8.90;;;;;;;11.73;58.81;102500.25;10431192;28;20029;-73
2022/04/29 18:21:04;;;;;;;18.92;10.80;;;;;;;11.58;58.04;102507.94;10416949;28;20025;-74
2022/04/29 18:26:06;;;;;;;13.45;9.10;;;;;;;11.42;59.27;102504.25;10404751;28;20108;-73
2022/04/29 18:31:06;;;;;;;15.03;8.63;;;;;;;11.20;60.12;102517.56;10454715;28;20481;-73
2022/04/29 18:36:07;;;;;;;14.18;9.30;;;;;;;11.33;61.00;102510.56;10411811;28;20048;-73
2022/04/29 18:41:08;;;;;;;16.65;10.00;;;;;;;11.15;60.63;102514.59;10404166;28;20100;-73
2022/04/29 18:46:08;;;;;;;13.07;8.73;;;;;;;10.96;61.66;102520.22;10418566;28;20668;-73
2022/04/29 18:51:09;;;;;;;13.07;8.23;;;;;;;10.78;61.59;102532.00;10414632;28;20156;-73
2022/04/29 18:56:10;;;;;;;21.50;8.48;;;;;;;10.69;61.39;102529.59;10415268;28;20500;-73
2022/04/29 19:01:13;;;;;;;13.50;8.27;;;;;;;10.58;61.77;102537.56;10402301;28;20025;-73
2022/04/29 19:06:14;;;;;;;12.95;7.82;;;;;;;10.43;61.68;102539.03;10388495;28;20924;-73
2022/04/29 19:11:15;;;;;;;15.50;9.05;;;;;;;10.32;62.18;102550.38;10436795;28;20622;-73
2022/04/29 19:16:16;;;;;;;18.42;8.73;;;;;;;10.14;62.19;102551.72;10419505;28;20036;-73
2022/04/29 19:21:16;;;;;;;10.85;7.25;;;;;;;10.02;63.30;102549.84;10453765;28;20060;-73
2022/04/29 19:26:17;;;;;;;12.00;7.30;;;;;;;9.84;63.44;102560.72;10418265;28;20068;-73
2022/04/29 19:31:18;;;;;;;14.90;8.90;;;;;;;9.73;63.62;102561.56;10437183;28;20025;-73
2022/04/29 19:36:20;;;;;;;10.95;7.70;;;;;;;9.62;64.90;102571.22;10413587;28;20480;-74
2022/04/29 19:41:20;;;;;;;11.53;8.13;;;;;;;9.43;64.85;102577.59;10405926;28;20056;-73
2022/04/29 19:46:21;;;;;;;17.92;8.43;;;;;;;9.27;65.87;102574.53;10416368;28;20087;-73
2022/04/29 19:51:21;;;;;;;11.80;7.03;;;;;;;9.15;65.51;102577.06;10432944;28;20478;-73
2022/04/29 19:56:22;;;;;;;11.02;7.18;;;;;;;9.05;66.53;102585.84;10400515;28;20059;-73
2022/04/29 20:06:47;;;;;;;12.75;7.72;;;;;;;8.82;66.85;102585.78;10441089;28;20416;-73
2022/04/29 20:11:48;;;;;;;11.60;8.23;;;;;;;8.70;66.99;102586.50;10403305;28;20055;-73
2022/04/29 20:16:49;;;;;;;14.70;7.90;;;;;;;8.56;67.42;102588.88;10438402;28;20480;-73
2022/04/29 20:21:53;;;;;;;16.95;9.60;;;;;;;8.41;68.29;102596.28;10418288;28;20119;-73
2022/04/29 20:26:53;;;;;;;14.90;9.95;;;;;;;8.16;68.64;102601.13;10400110;28;20029;-73
2022/04/29 20:31:54;;;;;;;15.82;9.35;;;;;;;8.03;69.86;102600.06;10400454;28;20061;-73
2022/04/29 20:36:54;;;;;;;15.05;9.32;;;;;;;7.87;70.48;102594.31;10418837;28;20033;-74
2022/04/29 20:47:16;;;;;;;19.63;9.38;;;;;;;7.63;71.77;102609.66;10400481;28;20037;-73
2022/04/29 20:52:17;;;;;;;14.45;9.95;;;;;;;7.58;71.97;102616.16;10383524;28;20029;-73
2022/04/29 20:57:17;;;;;;;18.10;10.85;;;;;;;7.48;72.39;102611.81;10428434;28;20025;-74
2022/04/29 21:02:18;;;;;;;17.25;11.13;;;;;;;7.37;72.64;102615.16;10433193;28;20057;-74
2022/04/29 21:07:19;;;;;;;18.95;11.40;;;;;;;7.26;73.06;102617.72;10450460;28;20052;-74
2022/04/29 21:12:21;;;;;;;21.60;9.57;;;;;;;7.13;72.64;102626.13;10493478;28;20455;-74
2022/04/29 21:17:22;;;;;;;17.25;10.35;;;;;;;7.10;73.39;102624.94;10467203;28;20131;-74
2022/04/29 21:22:23;;;;;;;27.60;11.93;;;;;;;6.98;73.23;102638.66;10499310;28;20041;-74
2022/04/29 21:27:23;;;;;;;18.15;11.27;;;;;;;6.99;72.66;102642.19;10464194;28;20064;-74
2022/04/29 21:32:24;;;;;;;13.38;9.57;;;;;;;7.03;71.54;102631.28;10456342;28;20029;-74
2022/04/29 21:37:24;;;;;;;17.40;9.93;;;;;;;6.93;71.67;102641.66;10481287;28;20067;-74
2022/04/29 21:42:25;;;;;;;10.60;6.70;;;;;;;6.82;71.53;102643.25;10477921;28;20072;-74
2022/04/29 21:47:25;;;;;;;16.48;9.48;;;;;;;6.70;72.19;102649.16;10456380;28;20456;-74
2022/04/29 21:52:26;;;;;;;11.45;7.90;;;;;;;6.58;72.84;102648.03;10455705;28;20029;-74
2022/04/29 21:57:26;;;;;;;11.40;8.00;;;;;;;6.53;72.96;102655.44;10455802;28;20072;-74
2022/04/29 22:02:30;;;;;;;13.75;7.53;;;;;;;6.49;72.23;102655.91;10454038;28;20017;-74
2022/04/29 22:07:30;;;;;;;14.57;7.22;;;;;;;6.41;73.12;102649.97;10426218;28;20046;-74
2022/04/29 22:12:31;;;;;;;13.68;7.78;;;;;;;6.26;74.07;102658.94;10416290;28;20033;-74
2022/04/29 22:17:32;;;;;;;13.45;7.85;;;;;;;6.16;74.08;102660.69;10435821;28;20052;-74
2022/04/29 22:22:32;;;;;;;12.02;8.85;;;;;;;6.04;74.39;102663.81;10437346;28;20579;-74
2022/04/29 22:27:33;;;;;;;12.77;8.32;;;;;;;6.04;74.71;102661.22;10438311;28;20056;-74
2022/04/29 22:32:33;;;;;;;15.80;8.27;;;;;;;6.03;74.02;102657.69;10396341;28;20030;-74
2022/04/29 22:37:34;;;;;;;15.18;8.70;;;;;;;5.92;74.89;102656.66;10413185;28;20033;-74
2022/04/29 22:42:38;;;;;;;13.68;8.15;;;;;;;5.82;75.27;102652.25;10395972;28;20057;-74
2022/04/29 22:47:39;;;;;;;17.67;9.75;;;;;;;5.74;75.57;102653.19;10396443;28;20042;-74
2022/04/29 22:52:40;;;;;;;11.20;6.88;;;;;;;5.65;75.44;102658.44;10412876;28;20389;-74
2022/04/29 22:57:41;;;;;;;14.07;8.45;;;;;;;5.52;76.15;102652.81;10432898;28;20032;-74
2022/04/29 23:02:42;;;;;;;17.77;7.75;;;;;;;5.41;76.55;102649.16;10433274;28;20044;-74
2022/04/29 23:07:42;;;;;;;13.98;8.32;;;;;;;5.34;76.81;102658.06;10414060;28;20044;-74
2022/04/29 23:12:44;;;;;;;12.65;7.82;;;;;;;5.27;77.25;102656.53;10453372;28;20095;-74
2022/04/29 23:23:12;;;;;;;13.85;7.85;;;;;;;5.19;78.30;102635.78;10438872;28;20484;-74
2022/04/29 23:28:18;;;;;;;20.45;9.15;;;;;;;5.12;78.66;102629.06;10437477;28;20152;-74
2022/04/29 23:33:18;;;;;;;15.27;9.32;;;;;;;5.03;79.12;102625.56;10463702;28;20033;-74
2022/04/29 23:38:19;;;;;;;16.48;10.07;;;;;;;4.90;79.75;102628.66;10477252;28;20494;-74
2022/04/29 23:43:19;;;;;;;17.73;8.63;;;;;;;4.82;80.00;102630.47;10452706;28;20043;-74
2022/04/29 23:48:21;;;;;;;14.75;9.15;;;;;;;4.81;80.15;102631.22;10468204;28;20073;-74
2022/04/29 23:53:22;;;;;;;19.08;10.38;;;;;;;4.68;80.75;102623.94;10452778;28;20021;-73
2022/04/29 23:58:22;;;;;;;16.50;9.40;;;;;;;4.62;81.20;102625.91;10435797;28;20425;-74
